sensor_id;sensor_type;location;lat;lon;timestamp;P1;durP1;ratioP1;P2;durP2;ratioP2
20844;SDS011;10583;49.084;8.646;2023-02-15T00:01:24;31.40;;;31.00;;
20844;SDS011;10583;49.084;8.646;2023-02-15T00:03:51;29.43;;;29.17;;
20844;SDS011;10583;49.084;8.646;2023-02-15T00:12:50;29.27;;;29.07;;
20844;SDS011;10583;49.084;8.646;2023-02-15T00:18:51;34.17;;;33.87;;
20844;SDS011;10583;49.084;8.646;2023-02-15T00:21:18;30.07;;;29.83;;
20844;SDS011;10583;49.084;8.646;2023-02-15T00:23:44;30.17;;;29.87;;
20844;SDS011;10583;49.084;8.646;2023-02-15T00:26:12;33.27;;;32.97;;
20844;SDS011;10583;49.084;8.646;2023-02-15T00:28:38;31.87;;;31.57;;
20844;SDS011;10583;49.084;8.646;2023-02-15T00:31:05;34.03;;;33.53;;
20844;SDS011;10583;49.084;8.646;2023-02-15T00:33:34;34.60;;;34.23;;
20844;SDS011;10583;49.084;8.646;2023-02-15T00:36:02;30.03;;;29.83;;
20844;SDS011;10583;49.084;8.646;2023-02-15T00:38:30;34.43;;;33.93;;
20844;SDS011;10583;49.084;8.646;2023-02-15T00:40:58;33.50;;;33.10;;
20844;SDS011;10583;49.084;8.646;2023-02-15T00:43:26;31.97;;;31.67;;
20844;SDS011;10583;49.084;8.646;2023-02-15T00:45:54;30.67;;;30.47;;
20844;SDS011;10583;49.084;8.646;2023-02-15T00:48:21;31.70;;;31.40;;
20844;SDS011;10583;49.084;8.646;2023-02-15T00:50:48;28.60;;;28.40;;
20844;SDS011;10583;49.084;8.646;2023-02-15T00:53:18;30.90;;;30.60;;
20844;SDS011;10583;49.084;8.646;2023-02-15T00:55:46;30.57;;;30.27;;
20844;SDS011;10583;49.084;8.646;2023-02-15T00:58:13;27.40;;;27.20;;
20844;SDS011;10583;49.084;8.646;2023-02-15T01:00:41;27.53;;;27.33;;
20844;SDS011;10583;49.084;8.646;2023-02-15T01:03:10;28.20;;;27.90;;
20844;SDS011;10583;49.084;8.646;2023-02-15T01:05:37;30.33;;;30.03;;
20844;SDS011;10583;49.084;8.646;2023-02-15T01:08:04;29.70;;;29.50;;
20844;SDS011;10583;49.084;8.646;2023-02-15T01:10:33;29.87;;;29.47;;
20844;SDS011;10583;49.084;8.646;2023-02-15T01:13:00;28.53;;;28.33;;
20844;SDS011;10583;49.084;8.646;2023-02-15T01:15:27;31.40;;;31.00;;
20844;SDS011;10583;49.084;8.646;2023-02-15T01:17:54;31.87;;;31.57;;
20844;SDS011;10583;49.084;8.646;2023-02-15T01:20:23;31.77;;;31.37;;
20844;SDS011;10583;49.084;8.646;2023-02-15T01:22:51;30.03;;;29.83;;
20844;SDS011;10583;49.084;8.646;2023-02-15T01:25:18;32.90;;;32.50;;
20844;SDS011;10583;49.084;8.646;2023-02-15T01:27:48;31.33;;;31.03;;
20844;SDS011;10583;49.084;8.646;2023-02-15T01:30:15;29.97;;;29.67;;
20844;SDS011;10583;49.084;8.646;2023-02-15T01:32:42;30.80;;;30.50;;
20844;SDS011;10583;49.084;8.646;2023-02-15T01:35:09;28.30;;;28.10;;
20844;SDS011;10583;49.084;8.646;2023-02-15T01:37:37;29.20;;;28.90;;
20844;SDS011;10583;49.084;8.646;2023-02-15T01:40:05;29.43;;;29.13;;
20844;SDS011;10583;49.084;8.646;2023-02-15T01:42:33;29.30;;;29.00;;
20844;SDS011;10583;49.084;8.646;2023-02-15T01:45:02;32.63;;;32.33;;
20844;SDS011;10583;49.084;8.646;2023-02-15T01:47:32;28.83;;;28.63;;
20844;SDS011;10583;49.084;8.646;2023-02-15T01:50:04;31.83;;;31.40;;
20844;SDS011;10583;49.084;8.646;2023-02-15T01:52:35;28.33;;;28.13;;
20844;SDS011;10583;49.084;8.646;2023-02-15T01:55:05;29.10;;;28.90;;
20844;SDS011;10583;49.084;8.646;2023-02-15T01:57:33;28.93;;;28.73;;
20844;SDS011;10583;49.084;8.646;2023-02-15T02:00:02;26.07;;;25.87;;
20844;SDS011;10583;49.084;8.646;2023-02-15T02:02:32;26.50;;;26.30;;
20844;SDS011;10583;49.084;8.646;2023-02-15T02:04:59;24.97;;;24.77;;
20844;SDS011;10583;49.084;8.646;2023-02-15T02:07:31;28.63;;;28.33;;
20844;SDS011;10583;49.084;8.646;2023-02-15T02:10:01;26.23;;;25.93;;
20844;SDS011;10583;49.084;8.646;2023-02-15T02:12:28;30.07;;;29.67;;
20844;SDS011;10583;49.084;8.646;2023-02-15T02:14:55;28.83;;;28.43;;
20844;SDS011;10583;49.084;8.646;2023-02-15T02:17:26;31.93;;;31.63;;
20844;SDS011;10583;49.084;8.646;2023-02-15T02:23:19;29.20;;;28.90;;
20844;SDS011;10583;49.084;8.646;2023-02-15T02:29:22;26.80;;;26.60;;
20844;SDS011;10583;49.084;8.646;2023-02-15T02:32:17;29.20;;;28.83;;
20844;SDS011;10583;49.084;8.646;2023-02-15T02:35:10;29.27;;;28.80;;
20844;SDS011;10583;49.084;8.646;2023-02-15T02:37:45;31.60;;;31.10;;
20844;SDS011;10583;49.084;8.646;2023-02-15T02:40:19;30.93;;;30.40;;
20844;SDS011;10583;49.084;8.646;2023-02-15T02:42:52;29.87;;;29.47;;
20844;SDS011;10583;49.084;8.646;2023-02-15T02:45:26;35.20;;;34.60;;
20844;SDS011;10583;49.084;8.646;2023-02-15T02:48:00;27.60;;;27.33;;
20844;SDS011;10583;49.084;8.646;2023-02-15T02:50:32;28.43;;;28.13;;
20844;SDS011;10583;49.084;8.646;2023-02-15T02:52:59;30.37;;;29.87;;
20844;SDS011;10583;49.084;8.646;2023-02-15T02:55:27;30.67;;;30.37;;
20844;SDS011;10583;49.084;8.646;2023-02-15T02:57:57;30.27;;;29.97;;
20844;SDS011;10583;49.084;8.646;2023-02-15T03:00:27;29.53;;;29.20;;
20844;SDS011;10583;49.084;8.646;2023-02-15T03:02:58;28.20;;;27.90;;
20844;SDS011;10583;49.084;8.646;2023-02-15T03:05:30;30.63;;;30.33;;
20844;SDS011;10583;49.084;8.646;2023-02-15T03:07:59;31.67;;;31.30;;
20844;SDS011;10583;49.084;8.646;2023-02-15T03:10:31;30.30;;;30.00;;
20844;SDS011;10583;49.084;8.646;2023-02-15T03:13:00;25.63;;;25.43;;
20844;SDS011;10583;49.084;8.646;2023-02-15T03:15:28;26.30;;;26.10;;
20844;SDS011;10583;49.084;8.646;2023-02-15T03:18:20;25.90;;;25.70;;
20844;SDS011;10583;49.084;8.646;2023-02-15T03:20:49;27.47;;;27.27;;
20844;SDS011;10583;49.084;8.646;2023-02-15T03:23:19;27.27;;;26.97;;
20844;SDS011;10583;49.084;8.646;2023-02-15T03:25:50;28.90;;;28.60;;
20844;SDS011;10583;49.084;8.646;2023-02-15T03:28:22;27.50;;;27.30;;
20844;SDS011;10583;49.084;8.646;2023-02-15T03:30:53;26.90;;;26.70;;
20844;SDS011;10583;49.084;8.646;2023-02-15T03:33:25;25.10;;;24.90;;
20844;SDS011;10583;49.084;8.646;2023-02-15T03:35:54;25.53;;;25.33;;
20844;SDS011;10583;49.084;8.646;2023-02-15T03:38:28;24.67;;;24.47;;
20844;SDS011;10583;49.084;8.646;2023-02-15T03:40:59;22.40;;;22.30;;
20844;SDS011;10583;49.084;8.646;2023-02-15T03:43:39;24.37;;;24.17;;
20844;SDS011;10583;49.084;8.646;2023-02-15T03:46:12;23.77;;;23.57;;
20844;SDS011;10583;49.084;8.646;2023-02-15T03:48:46;24.40;;;24.10;;
20844;SDS011;10583;49.084;8.646;2023-02-15T03:51:18;23.40;;;23.20;;
20844;SDS011;10583;49.084;8.646;2023-02-15T03:54:03;22.70;;;22.50;;
20844;SDS011;10583;49.084;8.646;2023-02-15T03:56:33;25.83;;;25.63;;
20844;SDS011;10583;49.084;8.646;2023-02-15T03:59:01;22.87;;;22.77;;
20844;SDS011;10583;49.084;8.646;2023-02-15T04:01:47;21.50;;;21.40;;
20844;SDS011;10583;49.084;8.646;2023-02-15T04:04:25;20.80;;;20.70;;
20844;SDS011;10583;49.084;8.646;2023-02-15T04:06:56;21.90;;;21.70;;
20844;SDS011;10583;49.084;8.646;2023-02-15T04:09:22;22.20;;;22.10;;
20844;SDS011;10583;49.084;8.646;2023-02-15T04:12:07;21.63;;;21.43;;
20844;SDS011;10583;49.084;8.646;2023-02-15T04:14:34;21.07;;;20.87;;
20844;SDS011;10583;49.084;8.646;2023-02-15T04:17:19;19.80;;;19.70;;
20844;SDS011;10583;49.084;8.646;2023-02-15T04:19:47;19.27;;;19.17;;
20844;SDS011;10583;49.084;8.646;2023-02-15T04:22:31;20.00;;;19.90;;
20844;SDS011;10583;49.084;8.646;2023-02-15T04:25:15;19.00;;;18.90;;
20844;SDS011;10583;49.084;8.646;2023-02-15T04:27:42;19.10;;;19.00;;
20844;SDS011;10583;49.084;8.646;2023-02-15T04:30:11;19.77;;;19.67;;
20844;SDS011;10583;49.084;8.646;2023-02-15T04:32:38;19.20;;;19.10;;
20844;SDS011;10583;49.084;8.646;2023-02-15T04:35:07;18.67;;;18.57;;
20844;SDS011;10583;49.084;8.646;2023-02-15T04:37:34;20.30;;;20.10;;
20844;SDS011;10583;49.084;8.646;2023-02-15T04:40:01;20.40;;;20.20;;
20844;SDS011;10583;49.084;8.646;2023-02-15T04:42:28;21.10;;;20.97;;
20844;SDS011;10583;49.084;8.646;2023-02-15T04:44:55;21.33;;;21.23;;
20844;SDS011;10583;49.084;8.646;2023-02-15T04:47:22;22.00;;;21.80;;
20844;SDS011;10583;49.084;8.646;2023-02-15T04:49:49;20.87;;;20.67;;
20844;SDS011;10583;49.084;8.646;2023-02-15T04:52:17;20.30;;;20.20;;
20844;SDS011;10583;49.084;8.646;2023-02-15T04:54:44;20.93;;;20.83;;
20844;SDS011;10583;49.084;8.646;2023-02-15T04:57:11;22.13;;;21.93;;
20844;SDS011;10583;49.084;8.646;2023-02-15T04:59:38;21.67;;;21.47;;
20844;SDS011;10583;49.084;8.646;2023-02-15T05:02:04;22.53;;;22.37;;
20844;SDS011;10583;49.084;8.646;2023-02-15T05:04:31;22.33;;;22.23;;
20844;SDS011;10583;49.084;8.646;2023-02-15T05:06:58;23.60;;;23.40;;
20844;SDS011;10583;49.084;8.646;2023-02-15T05:09:26;20.70;;;20.50;;
20844;SDS011;10583;49.084;8.646;2023-02-15T05:11:53;19.97;;;19.87;;
20844;SDS011;10583;49.084;8.646;2023-02-15T05:14:19;23.47;;;23.27;;
20844;SDS011;10583;49.084;8.646;2023-02-15T05:16:46;22.87;;;22.67;;
20844;SDS011;10583;49.084;8.646;2023-02-15T05:19:13;21.03;;;20.93;;
20844;SDS011;10583;49.084;8.646;2023-02-15T05:21:40;22.67;;;22.47;;
20844;SDS011;10583;49.084;8.646;2023-02-15T05:24:06;23.63;;;23.43;;
20844;SDS011;10583;49.084;8.646;2023-02-15T05:26:48;23.70;;;23.50;;
20844;SDS011;10583;49.084;8.646;2023-02-15T05:29:32;20.13;;;20.03;;
20844;SDS011;10583;49.084;8.646;2023-02-15T05:31:59;20.47;;;20.37;;
20844;SDS011;10583;49.084;8.646;2023-02-15T05:34:27;20.40;;;20.30;;
20844;SDS011;10583;49.084;8.646;2023-02-15T05:36:53;21.53;;;21.37;;
20844;SDS011;10583;49.084;8.646;2023-02-15T05:39:20;21.47;;;21.37;;
20844;SDS011;10583;49.084;8.646;2023-02-15T05:41:48;20.97;;;20.87;;
20844;SDS011;10583;49.084;8.646;2023-02-15T05:44:15;21.17;;;21.07;;
20844;SDS011;10583;49.084;8.646;2023-02-15T05:46:41;24.53;;;24.23;;
20844;SDS011;10583;49.084;8.646;2023-02-15T05:49:08;23.07;;;22.87;;
20844;SDS011;10583;49.084;8.646;2023-02-15T05:51:35;25.03;;;24.77;;
20844;SDS011;10583;49.084;8.646;2023-02-15T05:54:01;25.70;;;25.50;;
20844;SDS011;10583;49.084;8.646;2023-02-15T05:56:28;22.33;;;22.13;;
20844;SDS011;10583;49.084;8.646;2023-02-15T05:58:56;23.83;;;23.63;;
20844;SDS011;10583;49.084;8.646;2023-02-15T06:01:23;27.57;;;27.27;;
20844;SDS011;10583;49.084;8.646;2023-02-15T06:03:49;27.03;;;26.83;;
20844;SDS011;10583;49.084;8.646;2023-02-15T06:06:16;27.30;;;27.00;;
20844;SDS011;10583;49.084;8.646;2023-02-15T06:08:43;26.30;;;26.00;;
20844;SDS011;10583;49.084;8.646;2023-02-15T06:11:10;26.83;;;26.53;;
20844;SDS011;10583;49.084;8.646;2023-02-15T06:13:37;26.60;;;26.40;;
20844;SDS011;10583;49.084;8.646;2023-02-15T06:16:04;27.77;;;27.50;;
20844;SDS011;10583;49.084;8.646;2023-02-15T06:18:32;27.73;;;27.43;;
20844;SDS011;10583;49.084;8.646;2023-02-15T06:20:59;23.27;;;23.10;;
20844;SDS011;10583;49.084;8.646;2023-02-15T06:23:25;27.27;;;27.07;;
20844;SDS011;10583;49.084;8.646;2023-02-15T06:25:52;22.27;;;22.07;;
20844;SDS011;10583;49.084;8.646;2023-02-15T06:28:19;22.53;;;22.33;;
20844;SDS011;10583;49.084;8.646;2023-02-15T06:30:46;23.87;;;23.67;;
20844;SDS011;10583;49.084;8.646;2023-02-15T06:33:14;27.77;;;27.47;;
20844;SDS011;10583;49.084;8.646;2023-02-15T06:35:40;25.83;;;25.63;;
20844;SDS011;10583;49.084;8.646;2023-02-15T06:38:07;26.03;;;25.83;;
20844;SDS011;10583;49.084;8.646;2023-02-15T06:40:34;28.63;;;28.33;;
20844;SDS011;10583;49.084;8.646;2023-02-15T06:43:00;25.90;;;25.70;;
20844;SDS011;10583;49.084;8.646;2023-02-15T06:45:27;22.83;;;22.73;;
20844;SDS011;10583;49.084;8.646;2023-02-15T06:47:54;24.00;;;23.80;;
20844;SDS011;10583;49.084;8.646;2023-02-15T06:50:22;22.93;;;22.83;;
20844;SDS011;10583;49.084;8.646;2023-02-15T06:52:49;27.33;;;27.03;;
20844;SDS011;10583;49.084;8.646;2023-02-15T06:55:15;28.80;;;28.50;;
20844;SDS011;10583;49.084;8.646;2023-02-15T06:57:42;22.97;;;22.77;;
20844;SDS011;10583;49.084;8.646;2023-02-15T07:00:09;24.07;;;23.87;;
20844;SDS011;10583;49.084;8.646;2023-02-15T07:02:36;21.67;;;21.57;;
20844;SDS011;10583;49.084;8.646;2023-02-15T07:05:03;23.30;;;23.10;;
20844;SDS011;10583;49.084;8.646;2023-02-15T07:07:31;23.30;;;23.10;;
20844;SDS011;10583;49.084;8.646;2023-02-15T07:09:58;20.07;;;19.97;;
20844;SDS011;10583;49.084;8.646;2023-02-15T07:12:25;23.70;;;23.50;;
20844;SDS011;10583;49.084;8.646;2023-02-15T07:15:11;24.17;;;23.97;;
20844;SDS011;10583;49.084;8.646;2023-02-15T07:17:40;23.53;;;23.33;;
20844;SDS011;10583;49.084;8.646;2023-02-15T07:20:07;23.83;;;23.63;;
20844;SDS011;10583;49.084;8.646;2023-02-15T07:22:37;25.97;;;25.73;;
20844;SDS011;10583;49.084;8.646;2023-02-15T07:25:04;25.80;;;25.53;;
20844;SDS011;10583;49.084;8.646;2023-02-15T07:27:32;21.50;;;21.40;;
20844;SDS011;10583;49.084;8.646;2023-02-15T07:29:59;23.20;;;22.87;;
20844;SDS011;10583;49.084;8.646;2023-02-15T07:32:27;22.47;;;22.27;;
20844;SDS011;10583;49.084;8.646;2023-02-15T07:34:54;26.80;;;26.57;;
20844;SDS011;10583;49.084;8.646;2023-02-15T07:37:21;22.43;;;22.33;;
20844;SDS011;10583;49.084;8.646;2023-02-15T07:39:49;21.57;;;21.37;;
20844;SDS011;10583;49.084;8.646;2023-02-15T07:42:16;22.43;;;22.23;;
20844;SDS011;10583;49.084;8.646;2023-02-15T07:44:44;26.27;;;25.80;;
20844;SDS011;10583;49.084;8.646;2023-02-15T07:47:11;22.63;;;22.43;;
20844;SDS011;10583;49.084;8.646;2023-02-15T07:49:38;21.53;;;21.40;;
20844;SDS011;10583;49.084;8.646;2023-02-15T07:52:04;25.70;;;25.40;;
20844;SDS011;10583;49.084;8.646;2023-02-15T07:54:31;24.17;;;23.97;;
20844;SDS011;10583;49.084;8.646;2023-02-15T07:56:59;23.77;;;23.57;;
20844;SDS011;10583;49.084;8.646;2023-02-15T07:59:26;22.00;;;21.80;;
20844;SDS011;10583;49.084;8.646;2023-02-15T08:01:53;25.63;;;25.33;;
20844;SDS011;10583;49.084;8.646;2023-02-15T08:04:21;26.17;;;25.97;;
20844;SDS011;10583;49.084;8.646;2023-02-15T08:06:48;20.83;;;20.73;;
20844;SDS011;10583;49.084;8.646;2023-02-15T08:09:18;20.40;;;20.30;;
20844;SDS011;10583;49.084;8.646;2023-02-15T08:11:46;23.27;;;23.07;;
20844;SDS011;10583;49.084;8.646;2023-02-15T08:14:15;21.70;;;21.60;;
20844;SDS011;10583;49.084;8.646;2023-02-15T08:16:43;23.13;;;22.93;;
20844;SDS011;10583;49.084;8.646;2023-02-15T08:19:11;22.67;;;22.47;;
20844;SDS011;10583;49.084;8.646;2023-02-15T08:21:43;22.60;;;22.40;;
20844;SDS011;10583;49.084;8.646;2023-02-15T08:24:11;22.07;;;21.97;;
20844;SDS011;10583;49.084;8.646;2023-02-15T08:26:39;21.93;;;21.83;;
20844;SDS011;10583;49.084;8.646;2023-02-15T08:29:06;23.40;;;23.20;;
20844;SDS011;10583;49.084;8.646;2023-02-15T08:31:35;22.53;;;22.43;;
20844;SDS011;10583;49.084;8.646;2023-02-15T08:34:02;23.83;;;23.63;;
20844;SDS011;10583;49.084;8.646;2023-02-15T08:36:30;22.83;;;22.63;;
20844;SDS011;10583;49.084;8.646;2023-02-15T08:38:57;19.87;;;19.77;;
20844;SDS011;10583;49.084;8.646;2023-02-15T08:41:26;20.43;;;20.33;;
20844;SDS011;10583;49.084;8.646;2023-02-15T08:43:54;21.23;;;21.13;;
20844;SDS011;10583;49.084;8.646;2023-02-15T08:46:23;20.13;;;20.03;;
20844;SDS011;10583;49.084;8.646;2023-02-15T08:48:52;19.03;;;18.93;;
20844;SDS011;10583;49.084;8.646;2023-02-15T08:51:20;20.57;;;20.47;;
20844;SDS011;10583;49.084;8.646;2023-02-15T08:53:49;21.53;;;21.40;;
20844;SDS011;10583;49.084;8.646;2023-02-15T08:56:16;22.13;;;21.93;;
20844;SDS011;10583;49.084;8.646;2023-02-15T08:58:44;22.80;;;22.60;;
20844;SDS011;10583;49.084;8.646;2023-02-15T09:01:12;24.13;;;23.93;;
20844;SDS011;10583;49.084;8.646;2023-02-15T09:03:43;23.10;;;23.00;;
20844;SDS011;10583;49.084;8.646;2023-02-15T09:06:11;21.73;;;21.63;;
20844;SDS011;10583;49.084;8.646;2023-02-15T09:08:39;21.33;;;21.23;;
20844;SDS011;10583;49.084;8.646;2023-02-15T09:11:06;23.40;;;23.20;;
20844;SDS011;10583;49.084;8.646;2023-02-15T09:13:34;23.43;;;23.17;;
20844;SDS011;10583;49.084;8.646;2023-02-15T09:16:01;24.73;;;24.53;;
20844;SDS011;10583;49.084;8.646;2023-02-15T09:18:29;23.60;;;23.40;;
20844;SDS011;10583;49.084;8.646;2023-02-15T09:21:03;22.37;;;22.27;;
20844;SDS011;10583;49.084;8.646;2023-02-15T09:23:32;22.70;;;22.50;;
20844;SDS011;10583;49.084;8.646;2023-02-15T09:26:01;26.03;;;25.83;;
20844;SDS011;10583;49.084;8.646;2023-02-15T09:28:29;24.27;;;24.07;;
20844;SDS011;10583;49.084;8.646;2023-02-15T09:30:59;25.87;;;25.67;;
20844;SDS011;10583;49.084;8.646;2023-02-15T09:33:31;24.00;;;23.80;;
20844;SDS011;10583;49.084;8.646;2023-02-15T09:35:59;22.77;;;22.57;;
20844;SDS011;10583;49.084;8.646;2023-02-15T09:38:26;22.57;;;22.37;;
20844;SDS011;10583;49.084;8.646;2023-02-15T09:40:55;24.57;;;24.37;;
20844;SDS011;10583;49.084;8.646;2023-02-15T09:43:33;25.00;;;24.80;;
20844;SDS011;10583;49.084;8.646;2023-02-15T09:46:10;22.70;;;22.60;;
20844;SDS011;10583;49.084;8.646;2023-02-15T09:48:51;23.97;;;23.77;;
20844;SDS011;10583;49.084;8.646;2023-02-15T09:51:25;22.40;;;22.30;;
20844;SDS011;10583;49.084;8.646;2023-02-15T09:54:15;23.73;;;23.53;;
20844;SDS011;10583;49.084;8.646;2023-02-15T09:56:51;22.00;;;21.90;;
20844;SDS011;10583;49.084;8.646;2023-02-15T09:59:26;22.13;;;21.93;;
20844;SDS011;10583;49.084;8.646;2023-02-15T10:02:03;19.77;;;19.67;;
20844;SDS011;10583;49.084;8.646;2023-02-15T10:04:45;18.37;;;18.27;;
20844;SDS011;10583;49.084;8.646;2023-02-15T10:07:24;21.23;;;21.13;;
20844;SDS011;10583;49.084;8.646;2023-02-15T10:10:11;20.43;;;20.33;;
20844;SDS011;10583;49.084;8.646;2023-02-15T10:12:56;18.23;;;18.13;;
20844;SDS011;10583;49.084;8.646;2023-02-15T10:15:37;19.33;;;19.23;;
20844;SDS011;10583;49.084;8.646;2023-02-15T10:21:18;19.93;;;19.83;;
20844;SDS011;10583;49.084;8.646;2023-02-15T10:24:04;20.67;;;20.57;;
20844;SDS011;10583;49.084;8.646;2023-02-15T10:26:42;20.23;;;20.13;;
20844;SDS011;10583;49.084;8.646;2023-02-15T10:29:15;19.33;;;19.23;;
20844;SDS011;10583;49.084;8.646;2023-02-15T10:31:53;20.27;;;20.17;;
20844;SDS011;10583;49.084;8.646;2023-02-15T10:34:31;19.30;;;19.20;;
20844;SDS011;10583;49.084;8.646;2023-02-15T10:37:15;18.13;;;18.03;;
20844;SDS011;10583;49.084;8.646;2023-02-15T10:40:02;17.33;;;17.23;;
20844;SDS011;10583;49.084;8.646;2023-02-15T10:42:39;18.30;;;18.20;;
20844;SDS011;10583;49.084;8.646;2023-02-15T10:45:23;18.53;;;18.43;;
20844;SDS011;10583;49.084;8.646;2023-02-15T10:48:04;17.27;;;17.17;;
20844;SDS011;10583;49.084;8.646;2023-02-15T10:50:45;20.70;;;20.60;;
20844;SDS011;10583;49.084;8.646;2023-02-15T10:53:18;18.60;;;18.50;;
20844;SDS011;10583;49.084;8.646;2023-02-15T10:55:55;18.33;;;18.23;;
20844;SDS011;10583;49.084;8.646;2023-02-15T10:58:31;18.13;;;18.03;;
20844;SDS011;10583;49.084;8.646;2023-02-15T11:01:12;17.87;;;17.77;;
20844;SDS011;10583;49.084;8.646;2023-02-15T11:03:54;17.90;;;17.80;;
20844;SDS011;10583;49.084;8.646;2023-02-15T11:06:48;17.30;;;17.20;;
20844;SDS011;10583;49.084;8.646;2023-02-15T11:09:18;18.67;;;18.57;;
20844;SDS011;10583;49.084;8.646;2023-02-15T11:11:48;18.03;;;17.93;;
20844;SDS011;10583;49.084;8.646;2023-02-15T11:14:17;16.93;;;16.83;;
20844;SDS011;10583;49.084;8.646;2023-02-15T11:16:56;16.53;;;16.43;;
20844;SDS011;10583;49.084;8.646;2023-02-15T11:19:30;17.17;;;17.07;;
20844;SDS011;10583;49.084;8.646;2023-02-15T11:22:01;18.53;;;18.43;;
20844;SDS011;10583;49.084;8.646;2023-02-15T11:24:30;18.07;;;17.97;;
20844;SDS011;10583;49.084;8.646;2023-02-15T11:27:03;16.90;;;16.80;;
20844;SDS011;10583;49.084;8.646;2023-02-15T11:29:32;16.83;;;16.73;;
20844;SDS011;10583;49.084;8.646;2023-02-15T11:32:11;15.63;;;15.53;;
20844;SDS011;10583;49.084;8.646;2023-02-15T11:34:45;16.23;;;16.13;;
20844;SDS011;10583;49.084;8.646;2023-02-15T11:37:16;16.93;;;16.83;;
20844;SDS011;10583;49.084;8.646;2023-02-15T11:39:47;17.13;;;17.03;;
20844;SDS011;10583;49.084;8.646;2023-02-15T11:42:18;18.53;;;18.43;;
20844;SDS011;10583;49.084;8.646;2023-02-15T11:44:50;16.97;;;16.87;;
20844;SDS011;10583;49.084;8.646;2023-02-15T11:47:24;18.63;;;18.53;;
20844;SDS011;10583;49.084;8.646;2023-02-15T11:49:51;19.20;;;19.10;;
20844;SDS011;10583;49.084;8.646;2023-02-15T11:52:18;16.97;;;16.87;;
20844;SDS011;10583;49.084;8.646;2023-02-15T11:54:45;17.80;;;17.70;;
20844;SDS011;10583;49.084;8.646;2023-02-15T11:57:15;16.57;;;16.47;;
20844;SDS011;10583;49.084;8.646;2023-02-15T11:59:46;17.73;;;17.63;;
20844;SDS011;10583;49.084;8.646;2023-02-15T12:02:17;16.57;;;16.47;;
20844;SDS011;10583;49.084;8.646;2023-02-15T12:04:48;16.73;;;16.63;;
20844;SDS011;10583;49.084;8.646;2023-02-15T12:07:19;16.10;;;16.00;;
20844;SDS011;10583;49.084;8.646;2023-02-15T12:09:51;15.80;;;15.70;;
20844;SDS011;10583;49.084;8.646;2023-02-15T12:12:25;17.47;;;17.37;;
20844;SDS011;10583;49.084;8.646;2023-02-15T12:14:53;15.07;;;14.97;;
20844;SDS011;10583;49.084;8.646;2023-02-15T12:17:21;16.33;;;16.23;;
20844;SDS011;10583;49.084;8.646;2023-02-15T12:19:51;16.23;;;16.13;;
20844;SDS011;10583;49.084;8.646;2023-02-15T12:22:22;16.10;;;16.00;;
20844;SDS011;10583;49.084;8.646;2023-02-15T12:24:50;15.93;;;15.83;;
20844;SDS011;10583;49.084;8.646;2023-02-15T12:27:20;17.50;;;17.40;;
20844;SDS011;10583;49.084;8.646;2023-02-15T12:29:50;16.03;;;15.93;;
20844;SDS011;10583;49.084;8.646;2023-02-15T12:32:20;16.70;;;16.60;;
20844;SDS011;10583;49.084;8.646;2023-02-15T12:34:51;17.07;;;16.97;;
20844;SDS011;10583;49.084;8.646;2023-02-15T12:37:25;18.47;;;18.37;;
20844;SDS011;10583;49.084;8.646;2023-02-15T12:39:57;18.57;;;18.47;;
20844;SDS011;10583;49.084;8.646;2023-02-15T12:42:25;18.43;;;18.33;;
20844;SDS011;10583;49.084;8.646;2023-02-15T12:44:55;17.97;;;17.87;;
20844;SDS011;10583;49.084;8.646;2023-02-15T12:47:24;19.07;;;18.97;;
20844;SDS011;10583;49.084;8.646;2023-02-15T12:50:06;18.50;;;18.40;;
20844;SDS011;10583;49.084;8.646;2023-02-15T12:52:48;18.43;;;18.33;;
20844;SDS011;10583;49.084;8.646;2023-02-15T12:55:20;19.10;;;19.00;;
20844;SDS011;10583;49.084;8.646;2023-02-15T12:57:49;19.33;;;19.23;;
20844;SDS011;10583;49.084;8.646;2023-02-15T13:00:30;20.17;;;20.07;;
20844;SDS011;10583;49.084;8.646;2023-02-15T13:02:58;20.77;;;20.67;;
20844;SDS011;10583;49.084;8.646;2023-02-15T13:05:28;21.13;;;21.03;;
20844;SDS011;10583;49.084;8.646;2023-02-15T13:08:00;21.07;;;20.97;;
20844;SDS011;10583;49.084;8.646;2023-02-15T13:10:29;21.13;;;21.03;;
20844;SDS011;10583;49.084;8.646;2023-02-15T13:12:59;21.33;;;21.23;;
20844;SDS011;10583;49.084;8.646;2023-02-15T13:15:29;21.90;;;21.80;;
20844;SDS011;10583;49.084;8.646;2023-02-15T13:18:00;21.70;;;21.60;;
20844;SDS011;10583;49.084;8.646;2023-02-15T13:20:31;21.00;;;20.90;;
20844;SDS011;10583;49.084;8.646;2023-02-15T13:23:02;22.47;;;22.37;;
20844;SDS011;10583;49.084;8.646;2023-02-15T13:25:32;22.50;;;22.40;;
20844;SDS011;10583;49.084;8.646;2023-02-15T13:28:05;21.77;;;21.67;;
20844;SDS011;10583;49.084;8.646;2023-02-15T13:30:36;21.97;;;21.87;;
20844;SDS011;10583;49.084;8.646;2023-02-15T13:33:20;23.33;;;23.23;;
20844;SDS011;10583;49.084;8.646;2023-02-15T13:35:58;23.30;;;23.20;;
20844;SDS011;10583;49.084;8.646;2023-02-15T13:38:41;23.57;;;23.47;;
20844;SDS011;10583;49.084;8.646;2023-02-15T13:41:16;22.23;;;22.13;;
20844;SDS011;10583;49.084;8.646;2023-02-15T13:43:48;22.43;;;22.33;;
20844;SDS011;10583;49.084;8.646;2023-02-15T13:49:25;19.67;;;19.57;;
20844;SDS011;10583;49.084;8.646;2023-02-15T13:52:05;21.80;;;21.70;;
20844;SDS011;10583;49.084;8.646;2023-02-15T13:54:45;20.57;;;20.47;;
20844;SDS011;10583;49.084;8.646;2023-02-15T13:57:32;19.40;;;19.30;;
20844;SDS011;10583;49.084;8.646;2023-02-15T14:00:21;21.53;;;21.43;;
20844;SDS011;10583;49.084;8.646;2023-02-15T14:06:05;21.77;;;21.67;;
20844;SDS011;10583;49.084;8.646;2023-02-15T14:08:54;22.53;;;22.43;;
20844;SDS011;10583;49.084;8.646;2023-02-15T14:11:33;20.60;;;20.50;;
20844;SDS011;10583;49.084;8.646;2023-02-15T14:14:10;22.47;;;22.37;;
20844;SDS011;10583;49.084;8.646;2023-02-15T14:16:52;21.33;;;21.23;;
20844;SDS011;10583;49.084;8.646;2023-02-15T14:19:25;21.33;;;21.23;;
20844;SDS011;10583;49.084;8.646;2023-02-15T14:21:58;20.23;;;20.13;;
20844;SDS011;10583;49.084;8.646;2023-02-15T14:24:30;20.47;;;20.37;;
20844;SDS011;10583;49.084;8.646;2023-02-15T14:27:05;23.30;;;23.20;;
20844;SDS011;10583;49.084;8.646;2023-02-15T14:29:41;20.93;;;20.83;;
20844;SDS011;10583;49.084;8.646;2023-02-15T14:32:14;22.93;;;22.83;;
20844;SDS011;10583;49.084;8.646;2023-02-15T14:34:47;22.77;;;22.67;;
20844;SDS011;10583;49.084;8.646;2023-02-15T14:37:19;22.90;;;22.80;;
20844;SDS011;10583;49.084;8.646;2023-02-15T14:39:57;21.10;;;21.00;;
20844;SDS011;10583;49.084;8.646;2023-02-15T14:42:50;22.10;;;22.00;;
20844;SDS011;10583;49.084;8.646;2023-02-15T14:45:25;22.47;;;22.37;;
20844;SDS011;10583;49.084;8.646;2023-02-15T14:47:59;23.77;;;23.67;;
20844;SDS011;10583;49.084;8.646;2023-02-15T14:50:40;23.80;;;23.70;;
20844;SDS011;10583;49.084;8.646;2023-02-15T14:53:15;23.77;;;23.67;;
20844;SDS011;10583;49.084;8.646;2023-02-15T14:55:44;24.03;;;23.93;;
20844;SDS011;10583;49.084;8.646;2023-02-15T14:58:11;22.43;;;22.33;;
20844;SDS011;10583;49.084;8.646;2023-02-15T15:00:39;22.87;;;22.77;;
20844;SDS011;10583;49.084;8.646;2023-02-15T15:03:19;22.20;;;22.10;;
20844;SDS011;10583;49.084;8.646;2023-02-15T15:05:48;21.03;;;20.93;;
20844;SDS011;10583;49.084;8.646;2023-02-15T15:08:22;21.30;;;21.20;;
20844;SDS011;10583;49.084;8.646;2023-02-15T15:10:56;22.30;;;22.20;;